This is the latest recevied weather packets stored in our database for station/object SP8IZA-1. If no packets are shown the sender has not sent any weather packets the latest 10 day(s).
| Time | Temp. | Humidity | Pressure | Rain* | Wind** | Luminosity | Snow |
|---|---|---|---|---|---|---|---|
| 1788473896 | 15.56° C | 41% | 1012.8 hPa | - | - | - | - |
| 1788473596 | 15.56° C | 41% | 1012.9 hPa | - | - | - | - |
| 1788405082 | 12.78° C | 43% | 1016.2 hPa | - | - | - | - |
| 1788404180 | 12.78° C | 43% | 1016.2 hPa | - | - | - | - |
| 1788403880 | 12.78° C | 43% | 1016.2 hPa | - | - | - | - |
| 1788403579 | 12.78° C | 43% | 1016.3 hPa | - | - | - | - |
| 1788379239 | 14.44° C | 42% | 1016.9 hPa | - | - | - | - |
| 1788377736 | 15° C | 42% | 1016.8 hPa | - | - | - | - |
| 1788377436 | 15° C | 42% | 1016.9 hPa | - | - | - | - |
| 1788376835 | 15.56° C | 42% | 1016.9 hPa | - | - | - | - |
| 1788375633 | 15.56° C | 41% | 1016.9 hPa | - | - | - | - |
| 1788374431 | 16.11° C | 41% | 1016.8 hPa | - | - | - | - |
| 1788372928 | 17.22° C | 41% | 1016.7 hPa | - | - | - | - |
| 1788372628 | 17.22° C | 41% | 1016.6 hPa | - | - | - | - |
| 1788368421 | 21.67° C | 39% | 1016.2 hPa | - | - | - | - |
| 1788211561 | 16.67° C | 41% | 1012.1 hPa | - | - | - | - |
| 1788189624 | 22.78° C | 38% | 1011.4 hPa | - | - | - | - |
| 1788151761 | 14.44° C | 42% | 1012.4 hPa | - | - | - | - |
| 1788150860 | 13.89° C | 42% | 1012.4 hPa | - | - | - | - |
| 1788150559 | 13.89° C | 42% | 1012.4 hPa | - | - | - | - |
| 1788147855 | 14.44° C | 42% | 1012.3 hPa | - | - | - | - |
| 1788123514 | 17.22° C | 41% | 1012.8 hPa | - | - | - | - |
| 1788121711 | 17.78° C | 41% | 1012.9 hPa | - | - | - | - |
| 1788074833 | 20.56° C | 39% | 1014.7 hPa | - | - | - | - |
| 1788074533 | 20° C | 39% | 1014.6 hPa | - | - | - | - |
* Rain since midnight (hover to see other rain measurements)
** Current wind speed in m/s (hover to see current wind gust speed)